Terminal Aerodrome Forecast
Issued by NWS

Home | Current Version | Previous Version | Text Only | Print | Product List | Glossary On
Versions: 1 2 3 4 5 6 7 8 9 10 11 12 13 14 15 16 17 18
000
FTUS43 KSGF 011000 AAA
TAFBBG
TAF AMD
KBBG 011040Z 0111/0206 VRB05KT 5SM -FZDZ BR OVC003
     FM011700 32005KT 3SM BR OVC003=

USA.gov is the U.S. government's official web portal to all federal, state and local government web resources and services.